sensor_id;sensor_type;location;lat;lon;timestamp;pressure;altitude;pressure_sealevel;temperature;humidity
48882;BME280;57063;51.406;-2.402;2023-06-22T03:05:57;100816.75;;;14.87;100.00
48882;BME280;57063;51.406;-2.402;2023-06-22T03:08:22;100814.91;;;14.89;100.00
48882;BME280;57063;51.406;-2.402;2023-06-22T03:10:48;100814.25;;;14.98;100.00
48882;BME280;57063;51.406;-2.402;2023-06-22T03:13:39;100820.91;;;15.03;100.00
48882;BME280;57063;51.406;-2.402;2023-06-22T05:02:12;100813.75;;;14.93;100.00
48882;BME280;57063;51.406;-2.402;2023-06-22T05:15:12;100815.13;;;15.23;100.00
48882;BME280;57063;51.406;-2.402;2023-06-22T05:17:40;100815.94;;;15.36;100.00
48882;BME280;57063;51.406;-2.402;2023-06-22T05:20:09;100806.75;;;15.44;100.00
48882;BME280;57063;51.406;-2.402;2023-06-22T05:22:40;100809.13;;;15.47;100.00
48882;BME280;57063;51.406;-2.402;2023-06-22T06:14:23;100837.78;;;18.90;100.00
48882;BME280;57063;51.406;-2.402;2023-06-22T06:16:51;100834.53;;;19.86;93.82
48882;BME280;57063;51.406;-2.402;2023-06-22T06:19:16;100832.03;;;20.04;89.55
48882;BME280;57063;51.406;-2.402;2023-06-22T06:21:45;100843.00;;;20.57;84.26
48882;BME280;57063;51.406;-2.402;2023-06-22T06:24:26;100847.16;;;23.00;71.26
48882;BME280;57063;51.406;-2.402;2023-06-22T06:26:52;100849.91;;;24.40;63.36
48882;BME280;57063;51.406;-2.402;2023-06-22T06:29:23;100847.06;;;25.59;56.85
48882;BME280;57063;51.406;-2.402;2023-06-22T06:31:49;100844.56;;;26.57;53.09
48882;BME280;57063;51.406;-2.402;2023-06-22T06:42:00;100859.69;;;28.78;45.20
48882;BME280;57063;51.406;-2.402;2023-06-22T06:44:25;100858.31;;;28.47;45.69
48882;BME280;57063;51.406;-2.402;2023-06-22T06:46:51;100867.44;;;28.73;45.13
48882;BME280;57063;51.406;-2.402;2023-06-22T06:49:19;100862.00;;;28.53;45.11
48882;BME280;57063;51.406;-2.402;2023-06-22T06:51:45;100854.25;;;29.81;41.98
48882;BME280;57063;51.406;-2.402;2023-06-22T06:54:10;100860.03;;;30.83;39.32
48882;BME280;57063;51.406;-2.402;2023-06-22T06:56:36;100866.78;;;30.79;39.86
48882;BME280;57063;51.406;-2.402;2023-06-22T06:59:04;100851.72;;;30.53;41.10
48882;BME280;57063;51.406;-2.402;2023-06-22T07:01:30;100857.50;;;29.63;42.28
48882;BME280;57063;51.406;-2.402;2023-06-22T07:03:59;100859.06;;;30.57;40.94
48882;BME280;57063;51.406;-2.402;2023-06-22T07:06:37;100858.75;;;30.92;39.90
48882;BME280;57063;51.406;-2.402;2023-06-22T07:09:07;100861.59;;;29.99;41.26
48882;BME280;57063;51.406;-2.402;2023-06-22T07:11:37;100862.84;;;30.03;40.44
48882;BME280;57063;51.406;-2.402;2023-06-22T07:19:11;100850.00;;;29.05;44.82
48882;BME280;57063;51.406;-2.402;2023-06-22T07:21:37;100861.22;;;29.69;43.92
48882;BME280;57063;51.406;-2.402;2023-06-22T07:29:17;100849.06;;;28.78;44.75
48882;BME280;57063;51.406;-2.402;2023-06-22T07:34:24;100844.44;;;28.93;44.89
48882;BME280;57063;51.406;-2.402;2023-06-22T07:36:49;100846.56;;;27.57;47.34
48882;BME280;57063;51.406;-2.402;2023-06-22T07:39:15;100838.59;;;27.79;47.00
48882;BME280;57063;51.406;-2.402;2023-06-22T07:44:35;100842.41;;;28.26;46.47
48882;BME280;57063;51.406;-2.402;2023-06-22T07:47:35;100837.31;;;27.53;47.51
48882;BME280;57063;51.406;-2.402;2023-06-22T07:50:01;100844.69;;;27.51;47.70
48882;BME280;57063;51.406;-2.402;2023-06-22T07:52:30;100832.66;;;27.55;47.56
48882;BME280;57063;51.406;-2.402;2023-06-22T07:55:18;100834.66;;;27.96;46.45
48882;BME280;57063;51.406;-2.402;2023-06-22T07:58:06;100825.84;;;28.17;45.71
48882;BME280;57063;51.406;-2.402;2023-06-22T08:00:34;100831.16;;;28.17;46.33
48882;BME280;57063;51.406;-2.402;2023-06-22T08:03:01;100834.09;;;28.29;45.60
48882;BME280;57063;51.406;-2.402;2023-06-22T08:05:32;100845.09;;;29.09;43.98
48882;BME280;57063;51.406;-2.402;2023-06-22T08:07:57;100840.31;;;28.91;43.98
48882;BME280;57063;51.406;-2.402;2023-06-22T08:17:13;100851.16;;;29.51;42.60
48882;BME280;57063;51.406;-2.402;2023-06-22T08:35:57;100845.94;;;29.16;41.87
48882;BME280;57063;51.406;-2.402;2023-06-22T08:38:41;100848.50;;;29.51;42.65
48882;BME280;57063;51.406;-2.402;2023-06-22T08:43:45;100855.66;;;29.63;41.78
48882;BME280;57063;51.406;-2.402;2023-06-22T08:54:28;100850.16;;;30.05;39.95
48882;BME280;57063;51.406;-2.402;2023-06-22T08:59:37;100852.50;;;30.53;40.18
48882;BME280;57063;51.406;-2.402;2023-06-22T09:26:09;100866.13;;;31.42;38.16
48882;BME280;57063;51.406;-2.402;2023-06-22T10:17:04;100871.41;;;30.45;38.69
48882;BME280;57063;51.406;-2.402;2023-06-22T13:03:29;100842.56;;;33.60;31.57
48882;BME280;57063;51.406;-2.402;2023-06-22T13:20:06;100827.41;;;32.26;33.51
48882;BME280;57063;51.406;-2.402;2023-06-22T13:22:33;100838.09;;;32.08;35.28
48882;BME280;57063;51.406;-2.402;2023-06-22T13:25:10;100836.34;;;31.38;36.65
48882;BME280;57063;51.406;-2.402;2023-06-22T13:27:43;100832.78;;;31.19;37.47
48882;BME280;57063;51.406;-2.402;2023-06-22T13:32:40;100838.91;;;30.81;37.47
48882;BME280;57063;51.406;-2.402;2023-06-22T13:35:33;100831.28;;;31.30;37.02
48882;BME280;57063;51.406;-2.402;2023-06-22T13:38:23;100841.78;;;31.56;35.97
48882;BME280;57063;51.406;-2.402;2023-06-22T13:40:50;100841.34;;;31.85;35.99
48882;BME280;57063;51.406;-2.402;2023-06-22T13:43:21;100837.59;;;31.35;36.69
48882;BME280;57063;51.406;-2.402;2023-06-22T13:48:26;100848.09;;;30.92;36.43
48882;BME280;57063;51.406;-2.402;2023-06-22T13:51:00;100846.38;;;30.53;37.70
48882;BME280;57063;51.406;-2.402;2023-06-22T13:53:28;100846.13;;;30.67;38.12
48882;BME280;57063;51.406;-2.402;2023-06-22T14:01:40;100849.69;;;29.55;39.57
48882;BME280;57063;51.406;-2.402;2023-06-22T14:04:10;100848.41;;;29.11;39.24
48882;BME280;57063;51.406;-2.402;2023-06-22T14:06:37;100850.03;;;29.18;40.53
48882;BME280;57063;51.406;-2.402;2023-06-22T14:09:07;100846.97;;;28.67;40.37
48882;BME280;57063;51.406;-2.402;2023-06-22T14:11:33;100852.91;;;29.10;40.17
48882;BME280;57063;51.406;-2.402;2023-06-22T14:14:02;100847.53;;;29.03;41.18
48882;BME280;57063;51.406;-2.402;2023-06-22T14:16:39;100849.44;;;28.75;40.83
48882;BME280;57063;51.406;-2.402;2023-06-22T14:19:40;100855.78;;;28.39;41.84
48882;BME280;57063;51.406;-2.402;2023-06-22T14:22:09;100846.81;;;28.40;41.77
48882;BME280;57063;51.406;-2.402;2023-06-22T14:25:14;100856.16;;;28.36;42.38
48882;BME280;57063;51.406;-2.402;2023-06-22T14:27:40;100857.81;;;28.72;41.30
48882;BME280;57063;51.406;-2.402;2023-06-22T14:30:06;100861.97;;;28.81;40.40
48882;BME280;57063;51.406;-2.402;2023-06-22T14:32:32;100852.06;;;28.62;40.90
48882;BME280;57063;51.406;-2.402;2023-06-22T14:34:58;100852.81;;;28.55;40.82
48882;BME280;57063;51.406;-2.402;2023-06-22T14:37:25;100862.53;;;28.76;40.24
48882;BME280;57063;51.406;-2.402;2023-06-22T14:39:53;100863.31;;;28.64;39.88
48882;BME280;57063;51.406;-2.402;2023-06-22T14:42:19;100848.16;;;28.57;40.03
48882;BME280;57063;51.406;-2.402;2023-06-22T14:48:29;100850.25;;;28.06;41.61
48882;BME280;57063;51.406;-2.402;2023-06-22T14:50:54;100856.84;;;28.16;40.26
48882;BME280;57063;51.406;-2.402;2023-06-22T14:53:27;100849.03;;;28.08;39.93
48882;BME280;57063;51.406;-2.402;2023-06-22T14:56:33;100847.34;;;27.79;41.54
48882;BME280;57063;51.406;-2.402;2023-06-22T14:59:04;100856.13;;;27.80;41.45
48882;BME280;57063;51.406;-2.402;2023-06-22T15:04:06;100851.25;;;27.19;44.15
48882;BME280;57063;51.406;-2.402;2023-06-22T15:06:37;100867.09;;;26.97;43.68
48882;BME280;57063;51.406;-2.402;2023-06-22T15:09:03;100864.09;;;26.85;42.60
48882;BME280;57063;51.406;-2.402;2023-06-22T15:11:29;100856.97;;;26.86;42.36
48882;BME280;57063;51.406;-2.402;2023-06-22T15:13:58;100866.59;;;27.08;42.91
48882;BME280;57063;51.406;-2.402;2023-06-22T15:16:25;100868.25;;;27.24;41.36
48882;BME280;57063;51.406;-2.402;2023-06-22T15:18:51;100863.13;;;27.08;42.27
48882;BME280;57063;51.406;-2.402;2023-06-22T15:21:17;100861.47;;;26.56;42.35
48882;BME280;57063;51.406;-2.402;2023-06-22T15:23:42;100866.78;;;26.56;42.12
48882;BME280;57063;51.406;-2.402;2023-06-22T15:26:08;100868.66;;;26.62;42.41
48882;BME280;57063;51.406;-2.402;2023-06-22T15:28:36;100862.81;;;26.52;42.95
48882;BME280;57063;51.406;-2.402;2023-06-22T15:31:03;100871.69;;;26.74;41.44
48882;BME280;57063;51.406;-2.402;2023-06-22T15:33:29;100869.84;;;26.74;42.71
48882;BME280;57063;51.406;-2.402;2023-06-22T15:35:58;100878.53;;;26.68;41.86
48882;BME280;57063;51.406;-2.402;2023-06-22T15:38:40;100871.72;;;26.21;42.90
48882;BME280;57063;51.406;-2.402;2023-06-22T15:41:10;100875.09;;;26.30;41.67
48882;BME280;57063;51.406;-2.402;2023-06-22T15:43:56;100875.41;;;26.50;42.84
48882;BME280;57063;51.406;-2.402;2023-06-22T15:53:12;100889.06;;;26.38;42.33
48882;BME280;57063;51.406;-2.402;2023-06-22T15:55:37;100881.59;;;26.27;42.25
48882;BME280;57063;51.406;-2.402;2023-06-22T15:58:03;100889.00;;;26.09;42.92
48882;BME280;57063;51.406;-2.402;2023-06-22T16:00:30;100885.28;;;26.03;42.57
48882;BME280;57063;51.406;-2.402;2023-06-22T16:02:55;100886.41;;;25.86;42.36
48882;BME280;57063;51.406;-2.402;2023-06-22T16:12:10;100883.97;;;25.99;41.24
48882;BME280;57063;51.406;-2.402;2023-06-22T16:14:35;100882.06;;;25.84;40.96
48882;BME280;57063;51.406;-2.402;2023-06-22T16:17:06;100884.34;;;25.73;42.74
48882;BME280;57063;51.406;-2.402;2023-06-22T16:19:34;100889.63;;;25.73;42.38
48882;BME280;57063;51.406;-2.402;2023-06-22T16:22:00;100881.84;;;25.71;42.31
48882;BME280;57063;51.406;-2.402;2023-06-22T16:24:27;100884.34;;;25.73;42.41
48882;BME280;57063;51.406;-2.402;2023-06-22T16:26:54;100883.31;;;25.51;43.90
48882;BME280;57063;51.406;-2.402;2023-06-22T16:29:39;100883.63;;;25.56;42.78
48882;BME280;57063;51.406;-2.402;2023-06-22T16:32:08;100887.38;;;25.61;43.30
48882;BME280;57063;51.406;-2.402;2023-06-22T16:34:38;100883.56;;;25.64;42.29
48882;BME280;57063;51.406;-2.402;2023-06-22T16:37:07;100887.13;;;25.48;42.68
48882;BME280;57063;51.406;-2.402;2023-06-22T16:39:34;100892.53;;;25.32;43.00
48882;BME280;57063;51.406;-2.402;2023-06-22T16:42:02;100903.19;;;25.38;43.07
48882;BME280;57063;51.406;-2.402;2023-06-22T16:44:28;100901.03;;;25.42;43.83
48882;BME280;57063;51.406;-2.402;2023-06-22T16:47:00;100897.31;;;25.28;43.40
48882;BME280;57063;51.406;-2.402;2023-06-22T16:49:27;100901.00;;;25.11;43.55
48882;BME280;57063;51.406;-2.402;2023-06-22T16:51:55;100907.19;;;24.87;44.03
48882;BME280;57063;51.406;-2.402;2023-06-22T16:54:21;100904.91;;;24.84;44.34
48882;BME280;57063;51.406;-2.402;2023-06-22T16:56:47;100908.59;;;24.66;45.34
48882;BME280;57063;51.406;-2.402;2023-06-22T16:59:14;100910.91;;;24.61;45.50
48882;BME280;57063;51.406;-2.402;2023-06-22T17:01:49;100921.09;;;24.81;45.31
48882;BME280;57063;51.406;-2.402;2023-06-22T17:04:23;100925.06;;;24.76;46.15
48882;BME280;57063;51.406;-2.402;2023-06-22T17:06:56;100919.81;;;24.68;46.74
48882;BME280;57063;51.406;-2.402;2023-06-22T17:09:25;100917.47;;;24.73;47.32
48882;BME280;57063;51.406;-2.402;2023-06-22T17:11:52;100911.06;;;24.60;47.17
48882;BME280;57063;51.406;-2.402;2023-06-22T17:14:18;100916.53;;;24.58;48.65
48882;BME280;57063;51.406;-2.402;2023-06-22T17:16:44;100916.78;;;24.88;48.13
48882;BME280;57063;51.406;-2.402;2023-06-22T17:19:12;100911.75;;;25.09;47.54
48882;BME280;57063;51.406;-2.402;2023-06-22T17:21:39;100910.28;;;24.98;47.05
48882;BME280;57063;51.406;-2.402;2023-06-22T17:24:06;100917.03;;;25.17;46.37
48882;BME280;57063;51.406;-2.402;2023-06-22T17:26:31;100919.50;;;25.19;47.32
48882;BME280;57063;51.406;-2.402;2023-06-22T17:28:57;100914.03;;;25.12;46.94
48882;BME280;57063;51.406;-2.402;2023-06-22T17:31:39;100926.78;;;25.17;46.78
48882;BME280;57063;51.406;-2.402;2023-06-22T17:34:12;100924.63;;;25.12;46.83
48882;BME280;57063;51.406;-2.402;2023-06-22T17:36:50;100925.69;;;24.87;47.48
48882;BME280;57063;51.406;-2.402;2023-06-22T17:39:20;100925.06;;;24.76;48.27
48882;BME280;57063;51.406;-2.402;2023-06-22T17:41:46;100928.38;;;24.70;48.65
48882;BME280;57063;51.406;-2.402;2023-06-22T17:44:13;100928.88;;;24.58;48.66
48882;BME280;57063;51.406;-2.402;2023-06-22T17:46:42;100932.53;;;24.48;47.77
48882;BME280;57063;51.406;-2.402;2023-06-22T17:49:11;100936.16;;;24.47;48.31
48882;BME280;57063;51.406;-2.402;2023-06-22T17:51:41;100938.13;;;24.29;49.79
48882;BME280;57063;51.406;-2.402;2023-06-22T17:54:07;100940.94;;;24.27;49.38
48882;BME280;57063;51.406;-2.402;2023-06-22T17:56:33;100936.97;;;24.31;49.41
48882;BME280;57063;51.406;-2.402;2023-06-22T17:58:59;100940.94;;;24.27;49.53
48882;BME280;57063;51.406;-2.402;2023-06-22T18:01:37;100941.91;;;24.02;50.87
48882;BME280;57063;51.406;-2.402;2023-06-22T18:04:07;100948.84;;;24.03;52.00
48882;BME280;57063;51.406;-2.402;2023-06-22T18:06:38;100951.78;;;23.91;53.34
48882;BME280;57063;51.406;-2.402;2023-06-22T18:09:05;100951.78;;;23.91;53.65
48882;BME280;57063;51.406;-2.402;2023-06-22T18:11:33;100952.13;;;23.97;53.19
48882;BME280;57063;51.406;-2.402;2023-06-22T18:14:03;100950.78;;;23.84;54.44
48882;BME280;57063;51.406;-2.402;2023-06-22T18:16:30;100951.09;;;23.73;53.75
48882;BME280;57063;51.406;-2.402;2023-06-22T18:18:57;100959.94;;;23.64;54.02
48882;BME280;57063;51.406;-2.402;2023-06-22T18:21:24;100958.59;;;23.60;53.65
48882;BME280;57063;51.406;-2.402;2023-06-22T18:23:49;100966.84;;;23.57;53.43
48882;BME280;57063;51.406;-2.402;2023-06-22T18:26:19;100963.50;;;23.46;53.48
48882;BME280;57063;51.406;-2.402;2023-06-22T18:28:45;100963.97;;;23.34;54.17
48882;BME280;57063;51.406;-2.402;2023-06-22T18:31:11;100968.03;;;23.28;53.82
48882;BME280;57063;51.406;-2.402;2023-06-22T18:33:38;100974.69;;;23.06;54.50
48882;BME280;57063;51.406;-2.402;2023-06-22T18:36:04;100976.38;;;22.89;55.51
48882;BME280;57063;51.406;-2.402;2023-06-22T18:38:31;100972.94;;;22.97;55.99
48882;BME280;57063;51.406;-2.402;2023-06-22T18:40:57;100969.50;;;22.96;57.33
48882;BME280;57063;51.406;-2.402;2023-06-22T18:43:23;100971.84;;;22.99;57.72
48882;BME280;57063;51.406;-2.402;2023-06-22T18:45:49;100968.44;;;22.81;58.71
48882;BME280;57063;51.406;-2.402;2023-06-22T18:48:23;100968.63;;;22.61;57.74
48882;BME280;57063;51.406;-2.402;2023-06-22T18:50:49;100974.41;;;22.65;57.57
48882;BME280;57063;51.406;-2.402;2023-06-22T18:53:24;100977.47;;;22.60;59.32
48882;BME280;57063;51.406;-2.402;2023-06-22T18:55:51;100979.09;;;22.53;59.95
48882;BME280;57063;51.406;-2.402;2023-06-22T18:58:22;100972.34;;;22.33;60.10
48882;BME280;57063;51.406;-2.402;2023-06-22T19:00:53;100978.22;;;22.27;60.84
48882;BME280;57063;51.406;-2.402;2023-06-22T19:03:28;100984.06;;;22.20;60.35
48882;BME280;57063;51.406;-2.402;2023-06-22T19:05:55;100986.88;;;22.09;61.19
48882;BME280;57063;51.406;-2.402;2023-06-22T19:08:20;100982.94;;;22.05;61.31
48882;BME280;57063;51.406;-2.402;2023-06-22T19:10:47;100993.25;;;21.89;62.04
48882;BME280;57063;51.406;-2.402;2023-06-22T19:15:42;101008.13;;;21.80;62.58
48882;BME280;57063;51.406;-2.402;2023-06-22T19:20:41;101004.69;;;21.52;64.51
48882;BME280;57063;51.406;-2.402;2023-06-22T19:25:59;101010.50;;;21.46;64.30
48882;BME280;57063;51.406;-2.402;2023-06-22T19:28:29;101017.28;;;21.38;64.84
48882;BME280;57063;51.406;-2.402;2023-06-22T19:30:56;101014.88;;;21.55;63.66
48882;BME280;57063;51.406;-2.402;2023-06-22T19:33:23;101025.03;;;21.40;63.83
48882;BME280;57063;51.406;-2.402;2023-06-22T19:35:51;101020.78;;;21.29;62.79
48882;BME280;57063;51.406;-2.402;2023-06-22T19:38:18;101023.50;;;21.37;61.65
48882;BME280;57063;51.406;-2.402;2023-06-22T19:40:44;101029.06;;;21.25;61.50
48882;BME280;57063;51.406;-2.402;2023-06-22T19:43:12;101033.63;;;21.23;60.89
48882;BME280;57063;51.406;-2.402;2023-06-22T19:45:42;101028.91;;;21.26;61.36
48882;BME280;57063;51.406;-2.402;2023-06-22T19:48:09;101037.25;;;21.22;61.66
48882;BME280;57063;51.406;-2.402;2023-06-22T19:50:35;101032.56;;;21.06;62.39
48882;BME280;57063;51.406;-2.402;2023-06-22T19:53:07;101038.25;;;20.91;63.93
48882;BME280;57063;51.406;-2.402;2023-06-22T19:55:32;101040.47;;;20.86;64.06
48882;BME280;57063;51.406;-2.402;2023-06-22T19:57:58;101047.81;;;20.92;63.31
48882;BME280;57063;51.406;-2.402;2023-06-22T20:00:23;101048.38;;;20.77;63.46
48882;BME280;57063;51.406;-2.402;2023-06-22T20:02:50;101047.53;;;20.76;62.88
48882;BME280;57063;51.406;-2.402;2023-06-22T20:05:20;101053.63;;;20.77;63.61
48882;BME280;57063;51.406;-2.402;2023-06-22T20:07:45;101054.44;;;20.77;63.79
48882;BME280;57063;51.406;-2.402;2023-06-22T20:10:17;101061.63;;;20.75;64.24
48882;BME280;57063;51.406;-2.402;2023-06-22T20:12:50;101059.00;;;20.56;65.27
48882;BME280;57063;51.406;-2.402;2023-06-22T20:15:20;101058.28;;;20.53;64.96
48882;BME280;57063;51.406;-2.402;2023-06-22T20:18:03;101053.59;;;20.47;65.15
48882;BME280;57063;51.406;-2.402;2023-06-22T20:20:31;101062.13;;;20.40;65.53
48882;BME280;57063;51.406;-2.402;2023-06-22T20:23:00;101058.41;;;20.23;66.06
48882;BME280;57063;51.406;-2.402;2023-06-22T20:54:19;101109.31;;;19.38;71.79
48882;BME280;57063;51.406;-2.402;2023-06-22T20:57:40;101100.53;;;19.39;71.29
48882;BME280;57063;51.406;-2.402;2023-06-22T21:16:34;101110.03;;;19.19;71.61
48882;BME280;57063;51.406;-2.402;2023-06-22T21:18:59;101106.06;;;19.03;72.50
48882;BME280;57063;51.406;-2.402;2023-06-22T21:21:24;101115.91;;;18.90;73.00
48882;BME280;57063;51.406;-2.402;2023-06-22T21:27:38;101114.03;;;18.81;73.23
48882;BME280;57063;51.406;-2.402;2023-06-22T21:30:05;101108.94;;;18.68;73.53
48882;BME280;57063;51.406;-2.402;2023-06-22T21:32:36;101118.22;;;18.61;74.35
48882;BME280;57063;51.406;-2.402;2023-06-22T21:37:44;101112.09;;;18.51;75.17
48882;BME280;57063;51.406;-2.402;2023-06-22T21:40:11;101123.22;;;18.53;75.27
48882;BME280;57063;51.406;-2.402;2023-06-22T21:42:37;101120.72;;;18.63;75.10
48882;BME280;57063;51.406;-2.402;2023-06-22T21:45:03;101113.63;;;18.53;75.72
48882;BME280;57063;51.406;-2.402;2023-06-22T21:47:28;101117.53;;;18.48;76.09
48882;BME280;57063;51.406;-2.402;2023-06-22T21:49:54;101108.06;;;18.35;76.33
48882;BME280;57063;51.406;-2.402;2023-06-22T21:52:20;101104.16;;;18.30;76.83
48882;BME280;57063;51.406;-2.402;2023-06-22T21:54:45;101096.94;;;18.22;77.65
48882;BME280;57063;51.406;-2.402;2023-06-22T21:57:11;101099.19;;;18.15;77.93
48882;BME280;57063;51.406;-2.402;2023-06-22T21:59:37;101110.97;;;18.10;78.88
48882;BME280;57063;51.406;-2.402;2023-06-22T22:02:03;101103.59;;;18.04;79.33
48882;BME280;57063;51.406;-2.402;2023-06-22T22:04:28;101111.94;;;17.98;79.71
48882;BME280;57063;51.406;-2.402;2023-06-22T22:06:54;101101.34;;;17.99;79.59
48882;BME280;57063;51.406;-2.402;2023-06-22T22:09:21;101104.31;;;17.94;79.84
48882;BME280;57063;51.406;-2.402;2023-06-22T22:11:47;101108.13;;;17.90;80.94
48882;BME280;57063;51.406;-2.402;2023-06-22T22:14:12;101114.50;;;17.75;81.30
48882;BME280;57063;51.406;-2.402;2023-06-22T22:16:39;101105.25;;;17.71;81.72
48882;BME280;57063;51.406;-2.402;2023-06-22T22:19:05;101104.03;;;17.75;81.76
48882;BME280;57063;51.406;-2.402;2023-06-22T22:21:32;101102.16;;;17.66;81.74
48882;BME280;57063;51.406;-2.402;2023-06-22T22:23:58;101096.22;;;17.64;82.58
48882;BME280;57063;51.406;-2.402;2023-06-22T22:26:23;101099.31;;;17.69;83.37
48882;BME280;57063;51.406;-2.402;2023-06-22T22:28:50;101099.88;;;17.50;84.56
48882;BME280;57063;51.406;-2.402;2023-06-22T22:31:15;101095.13;;;17.44;84.92
48882;BME280;57063;51.406;-2.402;2023-06-22T22:33:41;101103.31;;;17.39;84.89
48882;BME280;57063;51.406;-2.402;2023-06-22T22:36:07;101097.47;;;17.36;84.39
48882;BME280;57063;51.406;-2.402;2023-06-22T22:38:32;101103.28;;;17.28;84.77
48882;BME280;57063;51.406;-2.402;2023-06-22T22:41:00;101100.66;;;17.28;85.54
48882;BME280;57063;51.406;-2.402;2023-06-22T22:43:25;101108.25;;;17.20;85.80
48882;BME280;57063;51.406;-2.402;2023-06-22T22:45:51;101114.72;;;17.14;86.78
48882;BME280;57063;51.406;-2.402;2023-06-22T22:48:16;101096.38;;;17.16;87.25
48882;BME280;57063;51.406;-2.402;2023-06-22T22:50:43;101103.94;;;17.07;87.49
48882;BME280;57063;51.406;-2.402;2023-06-22T22:53:08;101112.56;;;16.97;88.61
48882;BME280;57063;51.406;-2.402;2023-06-22T22:55:33;101113.25;;;16.87;89.21
48882;BME280;57063;51.406;-2.402;2023-06-22T22:58:01;101116.56;;;16.89;89.54
48882;BME280;57063;51.406;-2.402;2023-06-22T23:00:27;101121.28;;;16.84;89.60
48882;BME280;57063;51.406;-2.402;2023-06-22T23:02:52;101113.94;;;16.89;89.56
48882;BME280;57063;51.406;-2.402;2023-06-22T23:05:18;101122.84;;;16.74;90.13
48882;BME280;57063;51.406;-2.402;2023-06-22T23:07:45;101114.78;;;16.66;91.46
48882;BME280;57063;51.406;-2.402;2023-06-22T23:10:10;101125.28;;;16.64;91.94
48882;BME280;57063;51.406;-2.402;2023-06-22T23:12:37;101127.13;;;16.75;91.14
48882;BME280;57063;51.406;-2.402;2023-06-22T23:15:04;101126.03;;;16.66;90.58
48882;BME280;57063;51.406;-2.402;2023-06-22T23:17:29;101136.69;;;16.63;91.96
48882;BME280;57063;51.406;-2.402;2023-06-22T23:19:55;101142.94;;;16.61;91.42
48882;BME280;57063;51.406;-2.402;2023-06-22T23:22:20;101146.69;;;16.57;91.86
48882;BME280;57063;51.406;-2.402;2023-06-22T23:24:46;101134.41;;;16.59;91.53
48882;BME280;57063;51.406;-2.402;2023-06-22T23:27:12;101146.06;;;16.53;91.50
48882;BME280;57063;51.406;-2.402;2023-06-22T23:29:38;101146.69;;;16.57;93.34
48882;BME280;57063;51.406;-2.402;2023-06-22T23:32:03;101147.44;;;16.59;95.18
48882;BME280;57063;51.406;-2.402;2023-06-22T23:34:29;101136.19;;;16.58;95.38
48882;BME280;57063;51.406;-2.402;2023-06-22T23:36:55;101128.19;;;16.48;96.96
48882;BME280;57063;51.406;-2.402;2023-06-22T23:39:20;101136.31;;;16.44;97.38
48882;BME280;57063;51.406;-2.402;2023-06-22T23:41:46;101144.66;;;16.49;96.69
48882;BME280;57063;51.406;-2.402;2023-06-22T23:44:11;101140.41;;;16.35;98.66
48882;BME280;57063;51.406;-2.402;2023-06-22T23:46:37;101136.59;;;16.52;97.67
48882;BME280;57063;51.406;-2.402;2023-06-22T23:49:02;101143.41;;;16.42;98.53
48882;BME280;57063;51.406;-2.402;2023-06-22T23:51:28;101137.78;;;16.35;99.42
48882;BME280;57063;51.406;-2.402;2023-06-22T23:53:57;101141.78;;;16.28;100.00
48882;BME280;57063;51.406;-2.402;2023-06-22T23:56:23;101149.50;;;16.30;100.00
48882;BME280;57063;51.406;-2.402;2023-06-22T23:58:52;101159.50;;;16.23;100.00
